Time;durP1;ratioP1;P1;durP2;ratioP2;P2;SDS_P1;SDS_P2;PMS_P1;PMS_P2;Temp;Humidity;BMP_temperature;BMP_pressure;BME280_temperature;BME280_humidity;BME280_pressure;Samples;Min_cycle;Max_cycle;Signal;HPM_P1;HPM_P2
2021/12/07 00:00:37;;;;;;;;;4.00;4.00;;;;;13.71;72.76;99608.62;146607;621;46011;-74
2021/12/07 00:03:30;;;;;;;;;5.75;3.75;;;;;13.76;71.83;99616.50;146607;580;46012;-73
2021/12/07 00:06:22;;;;;;;;;9.00;8.00;;;;;13.77;71.30;99607.84;146608;577;46020;-73
2021/12/07 00:09:17;;;;;;;;;8.00;7.00;;;;;13.81;71.21;99607.94;146605;564;46012;-74
2021/12/07 00:12:09;;;;;;;;;4.00;4.00;;;;;13.85;71.75;99606.28;146607;688;46020;-73
2021/12/07 00:15:03;;;;;;;;;7.50;5.50;;;;;13.87;71.26;99609.81;146606;575;46013;-73
2021/12/07 00:17:55;;;;;;;;;6.00;3.67;;;;;13.85;70.95;99588.91;146609;595;46032;-72
2021/12/07 00:20:47;;;;;;;;;4.67;3.33;;;;;13.92;70.89;99589.91;146608;575;46012;-73
2021/12/07 00:23:39;;;;;;;;;5.75;3.75;;;;;13.94;71.65;99574.31;146608;578;46010;-73
2021/12/07 00:26:31;;;;;;;;;4.00;3.50;;;;;13.94;70.95;99562.16;146604;569;46016;-72
2021/12/07 00:29:24;;;;;;;;;0.00;0.00;;;;;13.96;70.56;99580.44;146608;591;46030;-77
2021/12/07 00:32:32;;;;;;;;;2.33;2.00;;;;;13.96;72.30;99583.91;146607;592;46016;-74
2021/12/07 00:35:36;;;;;;;;;2.67;2.67;;;;;13.90;71.82;99575.13;146608;645;46020;-75
2021/12/07 00:38:29;;;;;;;;;3.50;1.25;;;;;13.88;71.49;99561.16;146607;573;46014;-73
2021/12/07 00:41:22;;;;;;;;;2.33;2.00;;;;;13.88;70.18;99545.53;146605;565;46020;-74
2021/12/07 00:44:15;;;;;;;;;3.50;1.50;;;;;13.89;71.10;99536.84;146605;577;47012;-74
2021/12/07 00:47:07;;;;;;;;;3.67;3.00;;;;;13.86;71.22;99543.78;146609;666;46020;-74
2021/12/07 00:50:00;;;;;;;;;2.50;2.00;;;;;13.85;70.93;99542.00;146604;581;46915;-72
2021/12/07 00:52:53;;;;;;;;;3.67;2.67;;;;;13.86;70.18;99535.97;146610;603;46010;-73
2021/12/07 00:55:51;;;;;;;;;3.25;3.25;;;;;13.86;70.46;99525.53;146605;642;46016;-73
2021/12/07 00:58:44;;;;;;;;;10.25;9.25;;;;;13.87;70.42;99513.37;146607;622;46011;-70
2021/12/07 01:01:37;;;;;;;;;0.75;0.75;;;;;13.83;70.66;99496.81;146604;565;46016;-71
2021/12/07 01:04:29;;;;;;;;;1.00;1.00;;;;;13.76;71.28;99475.81;146607;650;46010;-71
2021/12/07 01:07:53;;;;;;;;;1.67;1.67;;;;;13.67;72.25;99465.22;146607;588;45017;-72
2021/12/07 01:26:51;;;;;;;;;6.50;6.50;;;;;13.54;71.82;99462.41;146605;676;46016;-72
2021/12/07 01:29:44;;;;;;;;;7.00;5.50;;;;;13.57;71.09;99467.66;146609;579;46014;-72
2021/12/07 01:33:10;;;;;;;;;5.50;5.50;;;;;13.61;71.88;99471.19;146608;585;46014;-72
2021/12/07 01:36:14;;;;;;;;;4.00;3.75;;;;;12.62;70.88;99293.16;146609;646;46021;-71
2021/12/07 02:01:49;;;;;;;;;6.50;5.50;;;;;13.54;71.20;99438.09;146607;564;46029;-73
2021/12/07 02:04:43;;;;;;;;;6.75;6.25;;;;;13.50;70.86;99437.16;146605;680;46017;-75
2021/12/07 02:07:35;;;;;;;;;8.75;6.50;;;;;13.49;70.83;99427.59;146607;616;46020;-73
2021/12/07 02:10:29;;;;;;;;;12.25;12.25;;;;;13.48;71.14;99422.34;146607;579;46012;-76
2021/12/07 02:16:33;;;;;;;;;7.75;6.00;;;;;13.36;71.10;99413.47;146605;600;45913;-74
2021/12/07 02:19:26;;;;;;;;;5.50;5.50;;;;;13.29;72.16;99411.56;146610;579;46020;-73
2021/12/07 02:22:19;;;;;;;;;5.50;4.50;;;;;13.17;72.78;99406.97;146605;570;46012;-74
2021/12/07 02:25:13;;;;;;;;;5.50;4.75;;;;;13.03;72.78;99386.75;146608;583;46010;-75
2021/12/07 02:28:12;;;;;;;;;6.50;5.25;;;;;12.92;74.56;99384.78;146606;577;46016;-76
2021/12/07 02:31:04;;;;;;;;;3.75;3.00;;;;;12.71;75.55;99380.03;146607;609;46020;-78
2021/12/07 02:33:56;;;;;;;;;3.33;3.33;;;;;12.63;74.48;99383.31;146610;625;46012;-73
2021/12/07 02:36:50;;;;;;;;;4.50;4.00;;;;;12.54;75.82;99381.38;146608;625;46021;-73
2021/12/07 02:39:44;;;;;;;;;4.25;4.25;;;;;12.51;74.79;99388.25;146601;682;47012;-70
2021/12/07 02:42:36;;;;;;;;;6.25;5.25;;;;;12.51;74.07;99389.13;146610;651;46010;-70
2021/12/07 02:45:28;;;;;;;;;12.25;9.50;;;;;12.53;74.69;99403.03;146607;687;46012;-69
2021/12/07 02:48:23;;;;;;;;;12.75;9.00;;;;;12.58;73.69;99408.34;146608;579;46020;-72
2021/12/07 02:51:15;;;;;;;;;10.50;9.50;;;;;12.66;74.17;99406.78;146607;587;46013;-76
2021/12/07 02:54:07;;;;;;;;;9.75;9.75;;;;;12.76;73.74;99413.94;146608;563;46020;-74
2021/12/07 02:56:59;;;;;;;;;18.00;14.00;;;;;12.83;73.61;99423.63;146605;585;47012;-74
2021/12/07 03:00:08;;;;;;;;;15.75;13.50;;;;;12.87;73.61;99419.38;146605;579;46020;-75
2021/12/07 03:03:06;;;;;;;;;33.00;26.75;;;;;12.91;73.14;99419.47;146604;571;46016;-75
2021/12/07 03:06:12;;;;;;;;;35.75;30.00;;;;;12.95;73.16;99412.59;146608;716;46010;-74
2021/12/07 03:28:23;;;;;;;;;11.00;8.75;;;;;12.68;73.96;99398.19;146606;579;46014;-72
2021/12/07 03:31:16;;;;;;;;;14.75;14.25;;;;;12.72;74.16;99393.91;146607;577;46010;-72
2021/12/07 03:34:09;;;;;;;;;18.50;17.50;;;;;12.76;73.96;99389.66;146607;586;45916;-73
2021/12/07 03:37:01;;;;;;;;;12.50;12.25;;;;;12.78;73.89;99394.06;146611;594;46010;-70
2021/12/07 03:39:54;;;;;;;;;9.75;9.00;;;;;12.80;73.84;99399.28;146607;573;46012;-69
2021/12/07 03:42:46;;;;;;;;;10.75;9.75;;;;;12.76;74.66;99390.53;146609;615;46010;-69
2021/12/07 03:45:38;;;;;;;;;8.25;7.50;;;;;12.69;75.51;99391.25;146604;692;46016;-70
2021/12/07 03:48:31;;;;;;;;;11.00;7.75;;;;;12.58;75.92;99387.53;146607;626;46020;-70
2021/12/07 03:51:23;;;;;;;;;9.25;8.00;;;;;12.50;75.62;99387.38;146605;619;46916;-70
2021/12/07 03:54:15;;;;;;;;;7.50;7.00;;;;;12.46;75.12;99391.63;146607;705;46020;-71
2021/12/07 03:57:09;;;;;;;;;9.75;7.25;;;;;12.47;74.64;99393.38;146606;589;46013;-73
2021/12/07 04:00:01;;;;;;;;;9.25;6.75;;;;;12.51;74.21;99389.13;146608;606;46020;-70
2021/12/07 04:02:55;;;;;;;;;6.50;6.50;;;;;12.56;74.12;99390.13;146605;655;46012;-72
2021/12/07 04:05:52;;;;;;;;;10.75;9.00;;;;;12.61;74.17;99392.78;146608;650;46021;-71
2021/12/07 04:08:45;;;;;;;;;9.75;8.00;;;;;12.63;74.14;99393.72;146607;648;46014;-72
2021/12/07 04:11:37;;;;;;;;;30.00;28.00;;;;;12.65;73.92;99395.50;146608;680;46020;-72
2021/12/07 04:14:30;;;;;;;;;11.50;9.00;;;;;12.67;73.59;99391.22;146605;588;46012;-75
2021/12/07 04:17:22;;;;;;;;;14.75;10.25;;;;;12.67;74.13;99392.94;146607;564;46020;-73
2021/12/07 04:20:16;;;;;;;;;9.50;8.25;;;;;12.64;74.64;99393.75;146606;648;46916;-73
2021/12/07 04:23:10;;;;;;;;;6.00;6.00;;;;;12.57;74.04;99380.59;146610;622;46010;-70
2021/12/07 04:26:03;;;;;;;;;10.50;9.00;;;;;12.55;74.07;99393.53;146605;581;46016;-70
2021/12/07 04:28:55;;;;;;;;;10.50;8.00;;;;;12.54;74.50;99396.12;146608;742;46021;-70
2021/12/07 04:31:47;;;;;;;;;7.75;7.50;;;;;12.52;74.17;99398.66;146607;590;46012;-69
2021/12/07 04:34:39;;;;;;;;;14.50;12.00;;;;;12.51;74.59;99394.31;146608;642;46022;-74
2021/12/07 04:37:32;;;;;;;;;14.50;13.50;;;;;12.49;74.68;99393.41;146600;582;47915;-74
2021/12/07 04:40:30;;;;;;;;;16.75;12.50;;;;;12.51;75.18;99406.44;146609;647;46010;-72
2021/12/07 04:43:22;;;;;;;;;11.75;9.75;;;;;12.50;75.11;99404.72;146606;606;45920;-73
2021/12/07 04:46:23;;;;;;;;;13.50;11.00;;;;;12.47;74.61;99389.91;146608;582;46020;-71
2021/12/07 04:58:56;;;;;;;;;11.25;9.00;;;;;12.37;74.65;99390.56;146609;593;46012;-69
2021/12/07 05:01:49;;;;;;;;;10.50;9.25;;;;;12.33;74.82;99393.91;146604;613;46016;-69
2021/12/07 05:04:41;;;;;;;;;9.75;9.00;;;;;12.27;75.64;99399.84;146607;590;46010;-68
2021/12/07 05:07:38;;;;;;;;;13.50;11.50;;;;;12.20;76.06;99400.53;146606;582;46016;-69
2021/12/07 05:10:33;;;;;;;;;12.75;12.00;;;;;12.15;75.46;99400.44;146599;584;46918;-69
2021/12/07 05:13:36;;;;;;;;;12.50;10.25;;;;;12.15;75.31;99413.44;146607;714;45917;-70
2021/12/07 05:17:11;;;;;;;;;14.25;13.75;;;;;12.20;74.71;99408.34;146608;566;46014;-70
2021/12/07 05:39:05;;;;;;;;;12.25;12.25;;;;;12.20;75.84;99408.34;146604;600;46016;-69
2021/12/07 05:41:57;;;;;;;;;14.50;13.25;;;;;12.12;74.86;99399.47;146609;611;45021;-69
2021/12/07 05:44:49;;;;;;;;;19.75;18.75;;;;;12.07;74.74;99401.97;146604;580;46016;-69
2021/12/07 05:47:42;;;;;;;;;20.50;15.00;;;;;12.03;75.33;99392.38;146605;584;46021;-70
2021/12/07 05:50:37;;;;;;;;;16.50;15.75;;;;;11.98;75.18;99384.44;146607;577;46012;-72
2021/12/07 05:53:29;;;;;;;;;13.50;12.25;;;;;11.93;74.78;99386.06;146608;641;46010;-72
2021/12/07 05:56:21;;;;;;;;;18.75;15.00;;;;;11.92;76.28;99388.63;146607;583;46012;-73
2021/12/07 05:59:14;;;;;;;;;16.50;16.25;;;;;11.89;75.62;99386.81;146609;564;46010;-73
2021/12/07 06:02:07;;;;;;;;;16.00;15.50;;;;;11.92;75.57;99386.03;146607;584;45017;-73
2021/12/07 06:04:59;;;;;;;;;12.75;12.25;;;;;11.97;75.05;99387.91;146611;598;46010;-74
2021/12/07 06:07:51;;;;;;;;;13.00;12.00;;;;;12.03;75.28;99400.16;146607;591;46012;-73
2021/12/07 06:10:43;;;;;;;;;14.00;12.00;;;;;11.14;75.21;99239.56;146609;609;45021;-73
2021/12/07 06:13:36;;;;;;;;;19.25;19.25;;;;;12.11;75.17;99398.59;146607;656;46012;-76
2021/12/07 06:16:30;;;;;;;;;21.50;17.25;;;;;12.18;74.80;99386.63;146611;564;46021;-75
2021/12/07 06:19:23;;;;;;;;;12.25;9.50;;;;;12.24;75.04;99391.97;146609;675;45017;-75
2021/12/07 06:22:15;;;;;;;;;23.50;19.75;;;;;12.30;74.85;99397.31;146611;569;45020;-73
2021/12/07 06:25:10;;;;;;;;;23.75;21.00;;;;;12.34;74.90;99399.16;146607;619;46013;-73
2021/12/07 06:28:02;;;;;;;;;24.25;21.00;;;;;12.37;75.03;99403.56;146608;593;46020;-75
2021/12/07 06:30:54;;;;;;;;;47.25;39.50;;;;;12.43;74.91;99412.38;146608;647;47015;-75
2021/12/07 06:33:46;;;;;;;;;59.50;48.25;;;;;12.48;74.82;99408.13;146611;615;45021;-74
2021/12/07 06:36:39;;;;;;;;;54.25;44.00;;;;;12.56;74.86;99407.44;146607;584;45917;-72
2021/12/07 06:39:31;;;;;;;;;52.00;41.75;;;;;12.61;75.02;99403.19;146606;584;46011;-73
2021/12/07 06:42:24;;;;;;;;;50.50;40.75;;;;;12.64;74.90;99405.87;146606;611;46016;-72
2021/12/07 06:45:17;;;;;;;;;24.75;23.75;;;;;12.67;74.68;99406.81;146609;573;46020;-73
2021/12/07 06:48:09;;;;;;;;;30.50;24.75;;;;;12.72;74.48;99409.53;146607;603;47013;-72
2021/12/07 06:51:02;;;;;;;;;25.75;21.25;;;;;12.76;74.19;99400.94;146608;583;46020;-72
2021/12/07 06:53:54;;;;;;;;;23.00;21.75;;;;;12.83;74.14;99399.34;146607;574;47013;-73
2021/12/07 06:56:47;;;;;;;;;16.00;16.00;;;;;12.89;73.71;99387.31;146608;708;46010;-73
2021/12/07 06:59:39;;;;;;;;;19.00;17.75;;;;;12.99;73.48;99390.13;146605;678;46016;-73
2021/12/07 07:02:31;;;;;;;;;15.75;15.00;;;;;13.08;73.25;99385.09;146608;572;46021;-75
2021/12/07 07:05:30;;;;;;;;;32.25;29.50;;;;;13.15;73.20;99390.47;146603;586;47915;-74
2021/12/07 07:08:23;;;;;;;;;23.25;19.25;;;;;13.21;72.85;99391.41;146609;603;46010;-71
2021/12/07 07:11:17;;;;;;;;;16.00;13.50;;;;;13.24;72.63;99387.16;146604;600;46016;-70
2021/12/07 07:14:09;;;;;;;;;13.25;13.00;;;;;13.30;72.35;99384.72;146607;585;46020;-70
2021/12/07 07:17:26;;;;;;;;;16.75;12.00;;;;;13.40;71.76;99390.97;146606;578;47012;-70
2021/12/07 07:20:20;;;;;;;;;19.00;17.25;;;;;13.47;72.06;99394.56;146606;597;46020;-72
2021/12/07 07:23:12;;;;;;;;;17.50;14.25;;;;;13.53;72.06;99390.34;146605;600;46013;-74
2021/12/07 07:26:05;;;;;;;;;19.75;16.50;;;;;13.55;71.38;99377.31;146600;570;46920;-73
2021/12/07 07:28:57;;;;;;;;;28.25;24.00;;;;;13.57;71.39;99381.72;146607;586;46012;-73
2021/12/07 07:31:50;;;;;;;;;32.00;26.75;;;;;13.63;71.22;99381.81;146605;620;46021;-69
2021/12/07 07:35:07;;;;;;;;;26.00;22.75;;;;;13.72;70.59;99378.50;146605;596;46012;-69
2021/12/07 07:38:10;;;;;;;;;25.25;24.25;;;;;13.86;71.12;99381.34;146604;579;46020;-68
2021/12/07 07:41:03;;;;;;;;;35.50;32.25;;;;;14.04;70.76;99376.41;146606;593;46016;-69
2021/12/07 07:43:55;;;;;;;;;24.75;22.75;;;;;14.32;70.28;99388.12;146608;624;46020;-74
2021/12/07 07:46:47;;;;;;;;;25.50;22.75;;;;;14.58;69.33;99382.47;146604;639;46017;-69
2021/12/07 07:50:08;;;;;;;;;26.50;24.25;;;;;14.83;68.24;99378.44;146606;597;46010;-66
2021/12/07 07:53:00;;;;;;;;;23.50;21.75;;;;;15.08;68.40;99361.34;146604;623;46024;-74
2021/12/07 08:00:25;;;;;;;;;;;;;;;;;;;;;
2021/12/07 08:03:27;;;;;;;;;15.75;13.50;;;;;15.51;65.92;99359.16;146607;571;46010;-69
2021/12/07 08:06:40;;;;;;;;;17.25;17.00;;;;;15.69;66.18;99350.66;146604;577;46012;-69
2021/12/07 08:09:32;;;;;;;;;18.50;17.00;;;;;14.61;65.73;99121.66;146603;565;46021;-69
2021/12/07 08:12:25;;;;;;;;;17.25;16.25;;;;;16.07;65.41;99340.47;146606;584;46016;-68
2021/12/07 08:15:21;;;;;;;;;20.75;20.00;;;;;16.26;65.08;99356.28;146609;631;45020;-73
2021/12/07 08:18:16;;;;;;;;;14.25;12.50;;;;;16.31;64.83;99360.69;146605;769;47014;-68
2021/12/07 08:21:08;;;;;;;;;10.50;9.50;;;;;15.20;64.81;99177.81;146609;662;46010;-65
2021/12/07 08:24:15;;;;;;;;;8.00;8.00;;;;;16.14;65.41;99354.50;146602;679;47013;-69
2021/12/07 08:27:20;;;;;;;;;8.25;7.25;;;;;16.07;64.83;99344.84;146611;599;46010;-68
2021/12/07 08:30:21;;;;;;;;;9.00;8.00;;;;;16.01;64.64;99345.69;146606;599;46016;-68
2021/12/07 08:33:25;;;;;;;;;5.75;5.75;;;;;16.08;64.82;99344.00;146605;597;46021;-69
2021/12/07 08:37:08;;;;;;;;;8.67;6.67;;;;;16.14;64.08;99347.53;146607;582;46016;-68
2021/12/07 08:40:01;;;;;;;;;5.75;5.25;;;;;16.23;64.22;99356.28;146606;684;46021;-68
2021/12/07 08:42:54;;;;;;;;;4.50;4.50;;;;;16.29;64.13;99349.38;146604;572;46016;-68
2021/12/07 08:45:46;;;;;;;;;7.00;7.00;;;;;16.31;63.82;99352.84;146606;736;46021;-68
2021/12/07 08:48:39;;;;;;;;;7.25;7.00;;;;;16.27;63.97;99350.22;146607;582;46016;-68
2021/12/07 08:51:31;;;;;;;;;11.25;11.00;;;;;16.12;64.68;99341.41;146606;646;46020;-68
2021/12/07 09:01:01;;;;;;;;;10.50;10.00;;;;;15.99;65.64;99333.47;146605;688;46017;-67
2021/12/07 09:04:01;;;;;;;;;10.50;9.25;;;;;16.11;65.79;99333.56;146610;612;45020;-67
2021/12/07 09:06:54;;;;;;;;;19.50;18.50;;;;;16.31;65.16;99331.06;146599;569;47015;-68
2021/12/07 09:09:47;;;;;;;;;18.50;17.50;;;;;16.42;64.26;99329.38;146608;598;46010;-67
2021/12/07 09:12:39;;;;;;;;;15.00;12.75;;;;;16.50;64.44;99334.62;146606;593;46012;-68
2021/12/07 09:15:31;;;;;;;;;16.25;13.25;;;;;16.51;63.86;99324.19;146607;621;46021;-68
2021/12/07 09:18:23;;;;;;;;;12.25;11.50;;;;;16.55;64.81;99322.47;146605;565;46917;-67
2021/12/07 09:21:17;;;;;;;;;14.25;10.75;;;;;16.63;64.10;99315.50;146608;682;46010;-67
2021/12/07 09:24:10;;;;;;;;;10.75;10.75;;;;;16.67;63.48;99308.56;146605;624;46012;-67
2021/12/07 09:27:02;;;;;;;;;11.75;10.75;;;;;16.66;63.87;99304.19;146609;634;46010;-68
2021/12/07 09:29:54;;;;;;;;;10.50;10.25;;;;;16.66;64.06;99307.66;146604;670;46016;-68
2021/12/07 09:32:48;;;;;;;;;10.25;7.50;;;;;16.73;63.07;99299.00;146609;575;46020;-67
2021/12/07 09:35:40;;;;;;;;;4.00;3.67;;;;;16.80;62.32;99297.28;146607;576;46012;-68
2021/12/07 09:38:32;;;;;;;;;4.33;4.33;;;;;16.85;61.34;99291.22;146608;641;46010;-67
2021/12/07 09:41:24;;;;;;;;;3.00;2.67;;;;;16.95;61.31;99281.62;146609;657;46012;-67
2021/12/07 09:44:17;;;;;;;;;3.33;2.33;;;;;17.09;60.96;99276.41;146609;650;46010;-68
2021/12/07 09:47:10;;;;;;;;;4.67;3.67;;;;;17.27;60.52;99288.66;146607;591;46017;-68
2021/12/07 09:50:02;;;;;;;;;5.00;5.00;;;;;17.37;60.65;99279.06;146609;678;45918;-69
2021/12/07 09:52:54;;;;;;;;;2.67;2.67;;;;;17.42;59.56;99279.97;146604;616;47918;-67
2021/12/07 09:55:48;;;;;;;;;2.00;2.00;;;;;17.47;58.30;99280.81;146607;614;46020;-68
2021/12/07 09:58:42;;;;;;;;;2.00;2.00;;;;;17.46;58.22;99277.31;146608;675;46012;-68
2021/12/07 10:01:34;;;;;;;;;3.00;1.67;;;;;17.49;57.83;99277.31;146608;606;46021;-67
2021/12/07 10:04:28;;;;;;;;;2.00;2.00;;;;;17.53;56.78;99270.34;146604;635;46016;-68
2021/12/07 10:07:21;;;;;;;;;4.00;2.67;;;;;17.58;57.11;99270.34;146609;592;46010;-71
2021/12/07 10:10:21;;;;;;;;;5.00;3.67;;;;;17.68;57.01;99275.56;146606;613;46918;-69
2021/12/07 10:13:15;;;;;;;;;17.75;16.25;;;;;17.71;56.53;99270.31;146606;600;46020;-71
2021/12/07 10:16:10;;;;;;;;;3.00;3.00;;;;;17.64;56.54;99265.09;146608;571;46013;-71
2021/12/07 10:19:03;;;;;;;;;3.00;3.00;;;;;17.54;56.78;99262.47;146608;631;46020;-72
2021/12/07 10:22:07;;;;;;;;;3.00;3.00;;;;;17.48;57.13;99262.47;146607;576;47015;-70
2021/12/07 10:25:00;;;;;;;;;6.67;5.67;;;;;17.37;58.09;99258.09;146610;590;46010;-68
2021/12/07 10:27:52;;;;;;;;;3.33;2.33;;;;;17.30;57.51;99255.50;146607;612;46016;-69
2021/12/07 10:30:45;;;;;;;;;2.67;2.67;;;;;17.27;57.38;99252.88;146611;584;46010;-71
2021/12/07 10:33:43;;;;;;;;;6.00;4.00;;;;;17.31;57.18;99246.75;146607;672;46016;-69
2021/12/07 10:36:38;;;;;;;;;4.00;4.00;;;;;17.37;57.91;99237.16;146607;601;46020;-69
2021/12/07 10:39:45;;;;;;;;;7.00;5.00;;;;;17.38;56.76;99239.75;146607;598;46012;-69
2021/12/07 10:42:40;;;;;;;;;2.67;2.33;;;;;17.30;56.81;99237.16;146610;563;46010;-69
2021/12/07 10:45:32;;;;;;;;;3.33;2.67;;;;;17.24;56.20;99225.78;146608;612;46016;-69
2021/12/07 10:48:26;;;;;;;;;3.33;2.67;;;;;17.17;56.96;99224.06;146609;604;46010;-69
2021/12/07 10:51:18;;;;;;;;;3.67;3.67;;;;;17.16;57.67;99220.53;146606;589;46016;-69
2021/12/07 10:54:11;;;;;;;;;3.67;3.00;;;;;17.19;57.11;99222.28;146610;607;46010;-69
2021/12/07 10:57:05;;;;;;;;;3.00;3.00;;;;;17.19;57.45;99215.31;146602;581;46016;-69
2021/12/07 11:00:40;;;;;;;;;4.25;3.25;;;;;17.19;58.87;99214.44;146608;615;46010;-70
2021/12/07 11:03:32;;;;;;;;;5.33;4.33;;;;;17.30;58.15;99220.56;146609;589;46012;-68
2021/12/07 11:06:25;;;;;;;;;6.00;4.67;;;;;17.50;58.25;99218.78;146609;625;46010;-70
2021/12/07 11:09:17;;;;;;;;;5.67;5.33;;;;;17.73;55.17;99215.28;146609;617;46033;-70
2021/12/07 11:12:16;;;;;;;;;4.00;3.00;;;;;17.85;55.72;99210.06;146611;599;46010;-70
2021/12/07 11:15:15;;;;;;;;;3.00;2.00;;;;;17.99;53.71;99212.62;146603;648;47014;-70
2021/12/07 11:18:13;;;;;;;;;4.67;3.67;;;;;18.13;54.57;99210.84;146609;604;46012;-69
2021/12/07 11:21:09;;;;;;;;;9.33;6.33;;;;;18.21;51.74;99197.69;146607;601;46017;-68
2021/12/07 11:24:02;;;;;;;;;1.67;1.00;;;;;18.22;52.60;99192.44;146607;552;46021;-69
2021/12/07 11:30:44;;;;;;;;;3.00;3.00;;;;;18.45;52.95;99187.06;146607;576;46023;-69
2021/12/07 11:33:36;;;;;;;;;3.67;2.00;;;;;18.66;52.40;99190.44;146608;607;46916;-69
2021/12/07 11:36:35;;;;;;;;;5.67;5.67;;;;;18.86;52.51;99177.25;146612;567;45020;-68
2021/12/07 11:39:47;;;;;;;;;2.00;2.00;;;;;19.09;52.64;99184.94;146606;724;46016;-70
2021/12/07 11:42:43;;;;;;;;;0.00;0.00;;;;;19.19;49.44;99183.09;146611;659;46010;-69
2021/12/07 11:45:37;;;;;;;;;2.33;2.33;;;;;19.17;48.88;99177.87;146607;619;46012;-69
2021/12/07 11:48:40;;;;;;;;;0.00;0.00;;;;;19.02;48.19;99183.25;146612;563;46010;-68
2021/12/07 11:51:32;;;;;;;;;0.33;0.00;;;;;18.72;47.10;99176.41;146606;733;46017;-69
2021/12/07 11:54:31;;;;;;;;;0.00;0.00;;;;;18.39;50.53;99183.63;146609;580;46010;-69
2021/12/07 11:57:24;;;;;;;;;1.00;1.00;;;;;18.12;50.60;99174.09;146606;612;46012;-68
2021/12/07 12:00:34;;;;;;;;;5.67;5.67;;;;;17.87;52.25;99174.19;146608;590;46021;-68
2021/12/07 12:03:30;;;;;;;;;5.33;4.00;;;;;17.57;50.74;99158.50;146608;628;45578;-69
2021/12/07 12:06:22;;;;;;;;;1.00;1.00;;;;;17.28;51.66;99165.53;146609;564;46020;-68
2021/12/07 12:09:14;;;;;;;;;2.67;2.67;;;;;17.02;53.83;99165.56;146605;642;46016;-70
2021/12/07 12:12:49;;;;;;;;;9.33;8.00;;;;;16.79;55.95;99160.31;146607;626;46012;-69
2021/12/07 12:16:26;;;;;;;;;8.00;7.00;;;;;14.78;57.22;98874.78;146607;587;46918;-69
2021/12/07 12:19:47;;;;;;;;;5.67;5.00;;;;;16.21;56.94;99169.72;146611;569;46010;-68
2021/12/07 12:23:03;;;;;;;;;4.00;4.00;;;;;16.02;58.15;99168.78;146608;583;46016;-70
2021/12/07 12:26:08;;;;;;;;;5.00;4.67;;;;;14.98;58.79;99026.28;146608;594;46020;-68
2021/12/07 12:29:01;;;;;;;;;9.67;7.67;;;;;15.73;58.82;99176.47;146606;606;46017;-68
2021/12/07 12:31:59;;;;;;;;;4.00;3.00;;;;;15.64;59.24;99172.91;146610;621;46020;-69
2021/12/07 12:34:54;;;;;;;;;6.75;5.00;;;;;15.56;59.31;99171.09;146605;660;46016;-68
2021/12/07 12:37:53;;;;;;;;;6.50;6.50;;;;;15.47;59.42;99175.41;146606;588;46010;-70
2021/12/07 12:40:45;;;;;;;;;5.00;5.00;;;;;15.41;58.86;99174.50;146608;563;46012;-69
2021/12/07 12:43:54;;;;;;;;;5.00;5.00;;;;;15.37;60.62;99183.19;146611;569;46010;-70
2021/12/07 12:46:47;;;;;;;;;4.00;4.00;;;;;15.31;60.64;99180.50;146606;647;46917;-69
2021/12/07 12:49:47;;;;;;;;;11.75;11.00;;;;;15.32;60.80;99187.47;146608;659;45021;-69
2021/12/07 12:52:52;;;;;;;;;12.00;11.00;;;;;15.34;60.21;99191.84;146606;725;46016;-69
2021/12/07 12:56:11;;;;;;;;;16.50;15.50;;;;;13.56;60.06;98881.72;146607;622;46020;-70
2021/12/07 12:59:09;;;;;;;;;15.25;12.50;;;;;15.43;60.29;99178.87;146606;743;46014;-70
2021/12/07 13:02:01;;;;;;;;;8.00;5.50;;;;;15.45;59.87;99182.38;146609;691;45023;-69
2021/12/07 13:05:10;;;;;;;;;13.75;12.00;;;;;15.49;60.42;99175.44;146606;616;46918;-72
2021/12/07 13:08:20;;;;;;;;;10.25;8.00;;;;;15.53;60.62;99177.19;146611;563;45020;-69
2021/12/07 13:11:12;;;;;;;;;10.50;9.00;;;;;15.60;60.55;99188.53;146604;621;46016;-70
2021/12/07 13:14:06;;;;;;;;;8.75;7.25;;;;;15.61;60.82;99187.69;146610;650;46010;-70
2021/12/07 13:17:31;;;;;;;;;8.25;8.25;;;;;15.63;60.94;99176.38;146609;574;45016;-70
2021/12/07 13:20:34;;;;;;;;;12.00;10.50;;;;;15.66;60.61;99180.75;146606;711;47010;-70
2021/12/07 13:23:31;;;;;;;;;8.50;6.75;;;;;15.66;59.50;99176.38;146606;657;46012;-70
2021/12/07 13:26:26;;;;;;;;;9.75;8.00;;;;;15.67;60.73;99187.78;146609;644;45582;-70
2021/12/07 13:29:25;;;;;;;;;18.25;12.75;;;;;15.72;60.04;99187.78;146604;613;46918;-70
2021/12/07 13:32:17;;;;;;;;;12.75;11.25;;;;;15.74;60.18;99197.38;146606;569;46020;-70
2021/12/07 13:35:11;;;;;;;;;9.50;7.75;;;;;15.72;59.56;99188.66;146604;641;46015;-70
2021/12/07 13:38:26;;;;;;;;;6.50;6.50;;;;;15.73;59.41;99197.38;146604;604;46020;-70
2021/12/07 13:41:27;;;;;;;;;5.50;5.00;;;;;15.71;58.47;99202.59;146608;698;45035;-70
2021/12/07 13:44:20;;;;;;;;;8.75;7.25;;;;;15.68;58.29;99193.00;146608;594;46010;-70
2021/12/07 13:47:22;;;;;;;;;10.00;8.75;;;;;15.66;58.98;99193.81;146605;607;46016;-70
2021/12/07 13:50:25;;;;;;;;;8.75;6.50;;;;;15.63;59.21;99186.81;146611;569;46010;-70
2021/12/07 13:53:17;;;;;;;;;10.50;10.00;;;;;15.69;59.15;99191.25;146605;605;46016;-70
2021/12/07 13:56:11;;;;;;;;;11.75;11.25;;;;;14.78;59.38;99033.09;146607;566;46010;-69
2021/12/07 13:59:09;;;;;;;;;15.75;14.25;;;;;15.74;58.81;99196.53;146606;673;46016;-69
2021/12/07 14:02:03;;;;;;;;;11.75;10.00;;;;;15.70;58.63;99198.25;146609;571;46010;-70
2021/12/07 14:05:14;;;;;;;;;19.25;17.25;;;;;14.88;58.98;99071.41;146605;616;47014;-70
2021/12/07 14:08:11;;;;;;;;;17.75;13.00;;;;;15.64;59.27;99209.50;146605;599;47012;-69
2021/12/07 14:11:03;;;;;;;;;10.00;8.50;;;;;15.61;58.88;99216.44;146606;564;46016;-69
2021/12/07 14:13:55;;;;;;;;;11.50;10.25;;;;;15.52;58.97;99216.37;146608;564;46010;-69
2021/12/07 14:16:48;;;;;;;;;11.75;10.75;;;;;14.53;58.71;99082.44;146605;722;46014;-70
2021/12/07 14:19:41;;;;;;;;;27.00;27.00;;;;;15.38;59.10;99234.53;146609;573;45021;-70
2021/12/07 14:22:34;;;;;;;;;17.25;16.00;;;;;15.34;59.14;99238.00;146603;569;46016;-69
2021/12/07 14:25:26;;;;;;;;;17.00;14.25;;;;;15.27;59.24;99238.81;146605;666;46020;-68
2021/12/07 14:28:52;;;;;;;;;20.25;19.25;;;;;14.81;60.11;99165.31;146606;609;46012;-70
2021/12/07 14:31:47;;;;;;;;;12.50;11.75;;;;;15.18;59.43;99237.00;146608;591;46010;-69
2021/12/07 14:34:39;;;;;;;;;14.25;13.25;;;;;15.14;59.44;99241.31;146605;573;46014;-69
2021/12/07 14:37:31;;;;;;;;;15.50;12.75;;;;;14.38;60.18;99123.13;146603;611;46010;-70
2021/12/07 14:40:24;;;;;;;;;55.00;42.25;;;;;15.06;61.23;99256.03;146606;605;46013;-70
2021/12/07 14:43:17;;;;;;;;;56.00;44.50;;;;;14.99;61.45;99254.22;146608;581;46010;-69
2021/12/07 14:46:11;;;;;;;;;26.00;21.75;;;;;14.92;61.07;99258.50;146607;592;46012;-69
2021/12/07 14:49:03;;;;;;;;;21.75;19.50;;;;;14.84;61.82;99264.50;146607;558;46021;-69
2021/12/07 14:51:56;;;;;;;;;21.25;16.50;;;;;14.73;62.50;99267.84;146606;597;46016;-71
2021/12/07 14:54:49;;;;;;;;;13.75;10.50;;;;;14.59;62.43;99274.66;146605;573;46053;-69
2021/12/07 14:57:42;;;;;;;;;17.25;17.25;;;;;14.44;63.44;99280.53;146603;601;46017;-69
2021/12/07 15:00:34;;;;;;;;;23.75;22.00;;;;;13.31;64.70;99109.66;146609;616;46010;-70
2021/12/07 15:03:25;;;;;;;;;17.00;15.75;;;;;13.24;64.76;99120.78;146605;614;46016;-69
2021/12/07 15:06:20;;;;;;;;;9.00;7.25;;;;;14.10;65.00;99290.50;146606;643;45020;-70
2021/12/07 15:09:13;;;;;;;;;26.25;20.50;;;;;13.97;66.14;99290.31;146600;583;47918;-69
2021/12/07 15:12:08;;;;;;;;;29.25;27.25;;;;;13.85;66.63;99289.25;146609;647;46010;-69
2021/12/07 15:15:05;;;;;;;;;34.50;30.75;;;;;13.79;67.10;99285.69;146608;687;45035;-71
2021/12/07 15:17:58;;;;;;;;;18.50;18.25;;;;;13.73;67.72;99285.59;146606;660;46020;-72
2021/12/07 15:20:52;;;;;;;;;22.00;21.75;;;;;13.65;67.21;99293.31;146605;628;46016;-72
2021/12/07 15:24:00;;;;;;;;;16.50;14.00;;;;;13.58;67.89;99291.44;146608;609;46020;-71
2021/12/07 15:26:54;;;;;;;;;20.75;18.50;;;;;13.54;67.97;99289.66;146607;652;46012;-73